This is the latest recevied weather packets stored in our database for station/object DG8SF-13. If no packets are shown the sender has not sent any weather packets the latest 10 day(s).
| Time | Temp. | Humidity | Pressure | Rain* | Wind** | Luminosity | Snow |
|---|---|---|---|---|---|---|---|
| 1788097549 | 26.67° C | 53% | 1014.4 hPa | 0 mm | - | - | - |
| 1788097227 | 26.67° C | 51% | 1014.4 hPa | 0 mm | - | - | - |
| 1788096901 | 26.11° C | 52% | 1014.4 hPa | 0 mm | - | - | - |
| 1788096569 | 27.22° C | 53% | 1014.5 hPa | 0 mm | - | - | - |
| 1788096253 | 27.22° C | 51% | 1014.4 hPa | 0 mm | - | - | - |
| 1788095942 | 26.11° C | 53% | 1014.6 hPa | 0 mm | - | - | - |
| 1788095628 | 27.22° C | 51% | 1014.6 hPa | 0 mm | - | - | - |
| 1788095318 | 27.22° C | 54% | 1014.5 hPa | 0 mm | - | - | - |
| 1788094992 | 26.11° C | 55% | 1014.8 hPa | 0 mm | - | - | - |
| 1788094671 | 26.11° C | 54% | 1014.8 hPa | 0 mm | - | - | - |
| 1788094357 | 27.22° C | 52% | 1014.8 hPa | 0 mm | - | - | - |
| 1788094039 | 27.22° C | 52% | 1014.8 hPa | 0 mm | - | - | - |
| 1788093720 | 27.78° C | 51% | 1014.7 hPa | 0 mm | - | - | - |
| 1788093401 | 27.78° C | 51% | 1015 hPa | 0 mm | - | - | - |
| 1788093086 | 27.78° C | 50% | 1014.8 hPa | 0 mm | - | - | - |
| 1788092776 | 27.78° C | 50% | 1014.9 hPa | 0 mm | - | - | - |
| 1788092460 | 28.33° C | 47% | 1014.9 hPa | 0 mm | - | - | - |
| 1788092150 | 27.22° C | 51% | 1014.8 hPa | 0 mm | - | - | - |
| 1788091837 | 26.67° C | 51% | 1015 hPa | 0 mm | - | - | - |
| 1788091527 | 26.67° C | 50% | 1015 hPa | 0 mm | - | - | - |
| 1788091213 | 26.67° C | 50% | 1015.1 hPa | 0 mm | - | - | - |
| 1788090903 | 27.22° C | 51% | 1015.1 hPa | 0 mm | - | - | - |
| 1788090588 | 27.22° C | 50% | 1015.1 hPa | 0 mm | - | - | - |
| 1788090279 | 27.22° C | 50% | 1015.2 hPa | 0 mm | - | - | - |
| 1788089965 | 27.22° C | 51% | 1015.2 hPa | 0 mm | - | - | - |
* Rain latest hour (hover to see other rain measurements)
** Current wind speed in m/s (hover to see current wind gust speed)